Leonie — PHLE — position and weather

sailwx.info

Track history (hours):
 
Tides and Currents Weather Stations Pressure Air Temp Water Temp Dewpoint Dewpoint Depression Visibility Wind Speed Wind Dir Waves Ship Positions

Leonie

Last reported at 2015-Jul-02 00:28 UTC. Time now 2015-Jul-02 00:51 UTC.
Position N 51°15' E 004°14'.

Length 90 m; draft 5.5 m.

Type: Cargo ship. MMSI: 244772000.

Date/timePositionNaut miles runAvg speedWind from/ knotsBaromVisibWave heightAir tempDewpointWater temp
2015-Jul-02 00:28N 51°15' E 004°14'2 1.8
2015-Jul-01 23:33N 51°16' E 004°17'2 2.0
2015-Jul-01 22:33N 51°18' E 004°18'8 7.9
2015-Jul-01 21:33N 51°22' E 004°07'7 6.6
2015-Jul-01 20:33N 51°23' E 003°57'8 8.1
2015-Jul-01 19:33N 51°22' E 003°44'7 7.2
2015-Jul-01 18:33N 51°26' E 003°35'9 9.1
2015-Jul-01 17:33N 51°33' E 003°25'43 8.3
2015-Jul-01 12:24N 52°15' E 003°31'8 9.7
2015-Jul-01 11:33N 52°22' E 003°39'1110.8
2015-Jul-01 10:33N 52°32' E 003°47'1111.2
2015-Jul-01 09:33N 52°42' E 003°53'1111.4
2015-Jul-01 08:33N 52°53' E 003°59'1110.9
2015-Jul-01 07:33N 53°02' E 004°10'1010.1
2015-Jul-01 06:33N 53°08' E 004°23'26 8.6
2015-Jul-01 03:33N 53°30' E 004°47'10 9.8
2015-Jul-01 02:33N 53°34' E 005°02'1111.1
2015-Jul-01 01:33N 53°38' E 005°20'4511.2
2015-Jun-30 21:33N 53°51' E 006°32'10 9.7
2015-Jun-30 20:33N 53°53' E 006°48'9 9.3
2015-Jun-30 19:33N 53°55' E 007°03'9 9.1
2015-Jun-30 18:33N 53°57' E 007°18'10 9.6
2015-Jun-30 17:33N 53°60' E 007°34'1110.6
2015-Jun-30 16:33N 54°02' E 007°52'1411.5
2015-Jun-30 15:21N 54°01' E 008°16'1112.0
2015-Jun-30 14:24N 53°58' E 008°34'1112.5
2015-Jun-30 13:33N 53°51' E 008°47'1010.0
2015-Jun-30 12:33N 53°52' E 009°04'4 3.7
2015-Jun-30 11:33N 53°54' E 009°09'8 8.3
2015-Jun-30 10:33N 54°01' E 009°18'4 3.6
2015-Jun-30 09:33N 54°04' E 009°19'8 7.8
2015-Jun-30 08:33N 54°10' E 009°27'5 4.8
2015-Jun-30 07:33N 54°12' E 009°34'5 4.6
2015-Jun-30 06:33N 54°16' E 009°38'8 7.5
2015-Jun-30 05:33N 54°22' E 009°47'4 4.3
2015-Jun-30 04:33N 54°21' E 009°55'8 7.6
2015-Jun-30 03:33N 54°22' E 010°07'2 2.2
2015-Jun-30 02:33N 54°23' E 010°11'10 9.8
2015-Jun-30 01:33N 54°31' E 010°21'1010.1
2015-Jun-30 00:33N 54°35' E 010°37'1010.2
2015-Jun-29 23:33N 54°35' E 010°55'1010.5
2015-Jun-29 22:33N 54°35' E 011°13'1010.5
2015-Jun-29 21:33N 54°31' E 011°29'1110.6
2015-Jun-29 20:33N 54°27' E 011°46'1110.7
2015-Jun-29 19:33N 54°27' E 012°05'10 9.8
2015-Jun-29 18:32N 54°35' E 012°14'1410.3
2015-Jun-29 17:11N 54°44' E 012°33'5010.4
2015-Jun-29 12:19N 55°03' E 013°54'8 9.9
2015-Jun-29 11:33N 55°06' E 014°06'10 9.3
2015-Jun-29 10:29N 55°14' E 014°18'1210.3
2015-Jun-29 09:21N 55°23' E 014°31'810.0
2015-Jun-29 08:33N 55°28' E 014°42'1010.0
2015-Jun-29 07:33N 55°33' E 014°57'10 9.9
2015-Jun-29 06:31N 55°38' E 015°12'9 9.9
2015-Jun-29 05:33N 55°43' E 015°27'14010.0
2015-Jun-28 15:33N 57°08' E 018°47'20010.0
2015-Jun-27 19:33N 59°35' E 023°06'1010.2
2015-Jun-27 18:33N 59°38' E 023°26'10 9.9
2015-Jun-27 17:33N 59°40' E 023°45'1010.0
2015-Jun-27 16:32N 59°43' E 024°04'14 9.7
2015-Jun-27 15:07N 59°45' E 024°31'610.0
2015-Jun-27 14:33N 59°41' E 024°40'8 2.6
2015-Jun-27 11:25N 59°35' E 024°49'0 0.0
2015-Jun-27 10:19N 59°35' E 024°49'0 0.0
2015-Jun-27 09:22N 59°35' E 024°49'0 0.0
2015-Jun-27 07:31N 59°35' E 024°49'0 0.0
2015-Jun-27 06:16N 59°35' E 024°49'0 0.1
2015-Jun-27 05:33N 59°35' E 024°49'8 8.2
2015-Jun-27 04:33N 59°43' E 024°50'28 8.9
2015-Jun-27 01:27N 59°55' E 025°40'1910.0
2015-Jun-26 23:33N 60°05' E 026°11'1010.2
2015-Jun-26 22:34N 60°13' E 026°24'1010.0
2015-Jun-26 21:33N 60°20' E 026°38'1010.0
2015-Jun-26 20:33N 60°25' E 026°56'4 4.0
2015-Jun-26 19:33N 60°29' E 026°57'0 0.0
2015-Jun-26 18:33N 60°29' E 026°57'0 0.0
2015-Jun-26 17:27N 60°29' E 026°57'0 0.0
2015-Jun-26 16:33N 60°29' E 026°57'0 0.0
2015-Jun-26 15:33N 60°29' E 026°57'0 0.0
2015-Jun-26 14:30N 60°29' E 026°57'0 0.0
2015-Jun-26 13:33N 60°29' E 026°57'0 0.0
2015-Jun-26 12:33N 60°29' E 026°57'0 0.0
2015-Jun-26 11:33N 60°29' E 026°57'0 0.0
2015-Jun-26 10:33N 60°29' E 026°57'0 0.0
2015-Jun-26 09:33N 60°29' E 026°57'0 0.0
2015-Jun-26 08:33N 60°29' E 026°57'0 0.0
2015-Jun-26 07:33N 60°29' E 026°57'0 0.0
2015-Jun-26 06:33N 60°29' E 026°57'0 0.0
2015-Jun-26 05:33N 60°29' E 026°57'0 0.0
2015-Jun-26 04:33N 60°29' E 026°57'0 0.3
2015-Jun-26 03:33N 60°29' E 026°57'8 8.4
2015-Jun-26 02:33N 60°23' E 026°46'1211.6
2015-Jun-26 01:33N 60°15' E 026°28'1111.3
2015-Jun-26 00:33N 60°05' E 026°18'6610.9
2015-Jun-25 18:32N 59°52' E 024°09'  
2015-Jun-22 14:23N 59°56' E 024°10'8 9.1
2015-Jun-22 13:28N 59°48' E 024°05'910.2
2015-Jun-22 12:33N 59°40' E 023°54'1010.5
2015-Jun-22 11:33N 59°36' E 023°36'  
Track history (hours):
 
Tides and Currents Weather Stations Pressure Air Temp Water Temp Dewpoint Dewpoint Depression Visibility Wind Speed Wind Dir Waves Ship Positions

Leonie

Last reported at 2015-Jul-02 00:28 UTC. Time now 2015-Jul-02 00:51 UTC.
Position N 51°15' E 004°14'.

Length 90 m; draft 5.5 m.

Type: Cargo ship. MMSI: 244772000.

Date/timePositionNaut miles runAvg speedWind from/ knotsBaromVisibWave heightAir tempDewpointWater temp
2015-Jul-02 00:28N 51°15' E 004°14'2 1.8
2015-Jul-01 23:33N 51°16' E 004°17'2 2.0
2015-Jul-01 22:33N 51°18' E 004°18'8 7.9
2015-Jul-01 21:33N 51°22' E 004°07'7 6.6
2015-Jul-01 20:33N 51°23' E 003°57'8 8.1
2015-Jul-01 19:33N 51°22' E 003°44'7 7.2
2015-Jul-01 18:33N 51°26' E 003°35'9 9.1
2015-Jul-01 17:33N 51°33' E 003°25'43 8.3
2015-Jul-01 12:24N 52°15' E 003°31'8 9.7
2015-Jul-01 11:33N 52°22' E 003°39'1110.8
2015-Jul-01 10:33N 52°32' E 003°47'1111.2
2015-Jul-01 09:33N 52°42' E 003°53'1111.4
2015-Jul-01 08:33N 52°53' E 003°59'1110.9
2015-Jul-01 07:33N 53°02' E 004°10'1010.1
2015-Jul-01 06:33N 53°08' E 004°23'26 8.6
2015-Jul-01 03:33N 53°30' E 004°47'10 9.8
2015-Jul-01 02:33N 53°34' E 005°02'1111.1
2015-Jul-01 01:33N 53°38' E 005°20'4511.2
2015-Jun-30 21:33N 53°51' E 006°32'10 9.7
2015-Jun-30 20:33N 53°53' E 006°48'9 9.3
2015-Jun-30 19:33N 53°55' E 007°03'9 9.1
2015-Jun-30 18:33N 53°57' E 007°18'10 9.6
2015-Jun-30 17:33N 53°60' E 007°34'1110.6
2015-Jun-30 16:33N 54°02' E 007°52'1411.5
2015-Jun-30 15:21N 54°01' E 008°16'1112.0
2015-Jun-30 14:24N 53°58' E 008°34'1112.5
2015-Jun-30 13:33N 53°51' E 008°47'1010.0
2015-Jun-30 12:33N 53°52' E 009°04'4 3.7
2015-Jun-30 11:33N 53°54' E 009°09'8 8.3
2015-Jun-30 10:33N 54°01' E 009°18'4 3.6
2015-Jun-30 09:33N 54°04' E 009°19'8 7.8
2015-Jun-30 08:33N 54°10' E 009°27'5 4.8
2015-Jun-30 07:33N 54°12' E 009°34'5 4.6
2015-Jun-30 06:33N 54°16' E 009°38'8 7.5
2015-Jun-30 05:33N 54°22' E 009°47'4 4.3
2015-Jun-30 04:33N 54°21' E 009°55'8 7.6
2015-Jun-30 03:33N 54°22' E 010°07'2 2.2
2015-Jun-30 02:33N 54°23' E 010°11'10 9.8
2015-Jun-30 01:33N 54°31' E 010°21'1010.1
2015-Jun-30 00:33N 54°35' E 010°37'1010.2
2015-Jun-29 23:33N 54°35' E 010°55'1010.5
2015-Jun-29 22:33N 54°35' E 011°13'1010.5
2015-Jun-29 21:33N 54°31' E 011°29'1110.6
2015-Jun-29 20:33N 54°27' E 011°46'1110.7
2015-Jun-29 19:33N 54°27' E 012°05'10 9.8
2015-Jun-29 18:32N 54°35' E 012°14'1410.3
2015-Jun-29 17:11N 54°44' E 012°33'5010.4
2015-Jun-29 12:19N 55°03' E 013°54'8 9.9
2015-Jun-29 11:33N 55°06' E 014°06'10 9.3
2015-Jun-29 10:29N 55°14' E 014°18'1210.3
2015-Jun-29 09:21N 55°23' E 014°31'810.0
2015-Jun-29 08:33N 55°28' E 014°42'1010.0
2015-Jun-29 07:33N 55°33' E 014°57'10 9.9
2015-Jun-29 06:31N 55°38' E 015°12'9 9.9
2015-Jun-29 05:33N 55°43' E 015°27'14010.0
2015-Jun-28 15:33N 57°08' E 018°47'20010.0
2015-Jun-27 19:33N 59°35' E 023°06'1010.2
2015-Jun-27 18:33N 59°38' E 023°26'10 9.9
2015-Jun-27 17:33N 59°40' E 023°45'1010.0
2015-Jun-27 16:32N 59°43' E 024°04'14 9.7
2015-Jun-27 15:07N 59°45' E 024°31'610.0
2015-Jun-27 14:33N 59°41' E 024°40'8 2.6
2015-Jun-27 11:25N 59°35' E 024°49'0 0.0
2015-Jun-27 10:19N 59°35' E 024°49'0 0.0
2015-Jun-27 09:22N 59°35' E 024°49'0 0.0
2015-Jun-27 07:31N 59°35' E 024°49'0 0.0
2015-Jun-27 06:16N 59°35' E 024°49'0 0.1
2015-Jun-27 05:33N 59°35' E 024°49'8 8.2
2015-Jun-27 04:33N 59°43' E 024°50'28 8.9
2015-Jun-27 01:27N 59°55' E 025°40'1910.0
2015-Jun-26 23:33N 60°05' E 026°11'1010.2
2015-Jun-26 22:34N 60°13' E 026°24'1010.0
2015-Jun-26 21:33N 60°20' E 026°38'1010.0
2015-Jun-26 20:33N 60°25' E 026°56'4 4.0
2015-Jun-26 19:33N 60°29' E 026°57'0 0.0
2015-Jun-26 18:33N 60°29' E 026°57'0 0.0
2015-Jun-26 17:27N 60°29' E 026°57'0 0.0
2015-Jun-26 16:33N 60°29' E 026°57'0 0.0
2015-Jun-26 15:33N 60°29' E 026°57'0 0.0
2015-Jun-26 14:30N 60°29' E 026°57'0 0.0
2015-Jun-26 13:33N 60°29' E 026°57'0 0.0
2015-Jun-26 12:33N 60°29' E 026°57'0 0.0
2015-Jun-26 11:33N 60°29' E 026°57'0 0.0
2015-Jun-26 10:33N 60°29' E 026°57'0 0.0
2015-Jun-26 09:33N 60°29' E 026°57'0 0.0
2015-Jun-26 08:33N 60°29' E 026°57'0 0.0
2015-Jun-26 07:33N 60°29' E 026°57'0 0.0
2015-Jun-26 06:33N 60°29' E 026°57'0 0.0
2015-Jun-26 05:33N 60°29' E 026°57'0 0.0
2015-Jun-26 04:33N 60°29' E 026°57'0 0.3
2015-Jun-26 03:33N 60°29' E 026°57'8 8.4
2015-Jun-26 02:33N 60°23' E 026°46'1211.6
2015-Jun-26 01:33N 60°15' E 026°28'1111.3
2015-Jun-26 00:33N 60°05' E 026°18'6610.9
2015-Jun-25 18:32N 59°52' E 024°09'  
2015-Jun-22 14:23N 59°56' E 024°10'8 9.1
2015-Jun-22 13:28N 59°48' E 024°05'910.2
2015-Jun-22 12:33N 59°40' E 023°54'1010.5
2015-Jun-22 11:33N 59°36' E 023°36'  

Dump ship's entire track history